createdAt,value
2022-08-24T00:01:33.006Z,20.23
2022-08-24T00:04:18.457Z,20.17
2022-08-24T00:07:04.897Z,20.17
2022-08-24T00:09:50.883Z,20.16
2022-08-24T00:12:36.598Z,20.16
2022-08-24T00:15:21.837Z,20.12
2022-08-24T00:18:07.491Z,20.13
2022-08-24T00:20:52.739Z,20.13
2022-08-24T00:23:37.765Z,20.15
2022-08-24T00:26:28.977Z,20.15
2022-08-24T00:29:16.387Z,20.16
2022-08-24T00:32:01.784Z,20.15
2022-08-24T00:34:58.389Z,20.14
2022-08-24T00:37:45.581Z,20.15
2022-08-24T00:40:35.344Z,20.11
2022-08-24T00:43:25.695Z,20.22
2022-08-24T00:46:22.909Z,20.12
2022-08-24T00:49:20.213Z,20.22
2022-08-24T00:52:12.457Z,20.15
2022-08-24T00:55:07.573Z,20.16
2022-08-24T00:57:57.696Z,20.11
2022-08-24T01:00:48.603Z,20.05
2022-08-24T01:03:35.998Z,20.05
2022-08-24T01:06:21.254Z,20.02
2022-08-24T01:09:07.094Z,20.00
2022-08-24T01:11:52.549Z,19.98
2022-08-24T01:14:38.715Z,19.92
2022-08-24T01:17:43.562Z,19.93
2022-08-24T01:20:28.860Z,19.90
2022-08-24T01:23:38.226Z,19.91
2022-08-24T01:26:30.627Z,19.88
2022-08-24T01:29:25.382Z,19.85
2022-08-24T01:32:11.804Z,19.79
2022-08-24T01:34:57.589Z,19.77
2022-08-24T01:37:42.885Z,19.74
2022-08-24T01:40:35.752Z,19.69
2022-08-24T01:43:21.054Z,19.69
2022-08-24T01:46:06.465Z,19.66
2022-08-24T01:48:51.468Z,19.64
2022-08-24T01:51:37.462Z,19.61
2022-08-24T01:54:23.058Z,19.61
2022-08-24T01:57:09.191Z,19.59
2022-08-24T01:59:54.537Z,19.58
2022-08-24T02:02:41.345Z,19.56
2022-08-24T02:05:26.630Z,19.54
2022-08-24T02:08:11.990Z,19.49
2022-08-24T02:10:57.206Z,19.51
2022-08-24T02:13:42.675Z,19.47
2022-08-24T02:16:27.607Z,19.45
2022-08-24T02:19:13.598Z,19.43
2022-08-24T02:21:59.788Z,19.42
2022-08-24T02:24:45.045Z,19.36
2022-08-24T02:27:30.352Z,19.36
2022-08-24T02:30:16.170Z,19.31
2022-08-24T02:33:01.627Z,19.31
2022-08-24T02:35:47.384Z,19.35
2022-08-24T02:38:32.718Z,19.33
2022-08-24T02:41:17.950Z,19.30
2022-08-24T02:44:03.194Z,19.37
2022-08-24T02:46:48.695Z,19.38
2022-08-24T02:49:35.141Z,19.40
2022-08-24T02:52:20.946Z,19.34
2022-08-24T03:11:08.285Z,19.43
2022-08-24T03:13:53.073Z,19.37
2022-08-24T03:16:38.733Z,19.38
2022-08-24T03:19:24.197Z,19.39
2022-08-24T03:22:09.438Z,19.38
2022-08-24T03:24:54.654Z,19.39
2022-08-24T03:27:40.534Z,19.39
2022-08-24T03:30:25.830Z,19.38
2022-08-24T03:33:12.062Z,19.46
2022-08-24T03:35:57.541Z,19.41
2022-08-24T03:38:43.307Z,19.44
2022-08-24T03:41:28.594Z,19.48
2022-08-24T03:44:13.770Z,19.49
2022-08-24T03:46:58.937Z,19.49
2022-08-24T03:49:44.567Z,19.50
2022-08-24T03:52:33.453Z,19.50
2022-08-24T03:55:20.150Z,19.51
2022-08-24T03:58:05.392Z,19.52
2022-08-24T04:00:50.635Z,19.47
2022-08-24T04:03:40.841Z,19.56
2022-08-24T04:06:26.411Z,19.60
2022-08-24T04:09:11.745Z,19.60
2022-08-24T04:11:56.756Z,19.59
2022-08-24T04:14:41.803Z,19.59
2022-08-24T04:17:27.099Z,19.58
2022-08-24T04:20:12.589Z,19.58
2022-08-24T04:22:57.698Z,19.64
2022-08-24T04:35:45.399Z,19.62
2022-08-24T04:38:30.735Z,19.69
2022-08-24T04:41:18.371Z,19.70
2022-08-24T04:44:37.300Z,19.74
2022-08-24T04:47:22.576Z,19.76
2022-08-24T04:50:08.308Z,19.78
2022-08-24T04:52:53.228Z,19.79
2022-08-24T04:55:49.995Z,19.67
2022-08-24T04:58:35.002Z,19.77
2022-08-24T05:01:23.744Z,19.79
2022-08-24T05:04:08.958Z,19.72
2022-08-24T05:06:54.456Z,19.74
2022-08-24T05:09:39.525Z,19.81
2022-08-24T05:12:24.838Z,19.81
2022-08-24T05:15:10.204Z,19.82
2022-08-24T05:17:55.181Z,19.75
2022-08-24T05:20:45.337Z,19.74
2022-08-24T05:23:31.230Z,19.73
2022-08-24T05:26:25.373Z,19.79
2022-08-24T05:29:10.760Z,19.78
2022-08-24T05:31:55.722Z,19.79
2022-08-24T05:34:40.917Z,19.80
2022-08-24T05:37:26.294Z,19.74
2022-08-24T05:40:14.307Z,19.80
2022-08-24T05:42:59.645Z,19.80
2022-08-24T05:45:44.888Z,19.80
2022-08-24T05:48:29.950Z,19.83
2022-08-24T05:51:15.191Z,19.80
2022-08-24T05:54:00.741Z,19.73
2022-08-24T05:56:46.025Z,19.78
2022-08-24T05:59:31.760Z,19.80
2022-08-24T06:02:17.455Z,19.81
2022-08-24T06:05:03.052Z,19.83
2022-08-24T06:07:48.144Z,19.74
2022-08-24T06:10:38.781Z,19.81
2022-08-24T06:13:23.941Z,19.71
2022-08-24T06:16:27.657Z,19.83
2022-08-24T06:19:15.152Z,19.85
2022-08-24T06:22:01.386Z,20.35
2022-08-24T06:25:05.065Z,20.68
2022-08-24T06:27:50.253Z,20.62
2022-08-24T06:30:35.224Z,20.39
2022-08-24T06:33:21.171Z,20.26
2022-08-24T06:36:06.528Z,20.25
2022-08-24T06:38:53.015Z,20.23
2022-08-24T06:41:39.196Z,20.20
2022-08-24T06:44:24.211Z,20.24
2022-08-24T06:47:09.686Z,20.27
2022-08-24T06:49:54.761Z,20.28
2022-08-24T06:52:40.396Z,20.27
2022-08-24T06:55:25.553Z,20.32
2022-08-24T06:58:10.736Z,20.42
2022-08-24T07:00:56.961Z,20.48
2022-08-24T07:03:42.443Z,20.52
2022-08-24T07:06:28.628Z,20.55
2022-08-24T07:09:13.990Z,20.59
2022-08-24T07:11:59.321Z,20.65
2022-08-24T07:14:44.665Z,20.74
2022-08-24T07:17:30.009Z,20.83
2022-08-24T07:20:17.470Z,20.92
2022-08-24T07:23:07.411Z,20.95
2022-08-24T07:25:55.999Z,21.05
2022-08-24T07:28:41.993Z,21.13
2022-08-24T07:31:27.949Z,21.14
2022-08-24T07:34:15.240Z,21.21
2022-08-24T07:37:03.735Z,21.30
2022-08-24T07:39:48.863Z,21.36
2022-08-24T07:42:34.415Z,21.44
2022-08-24T07:45:20.575Z,21.43
2022-08-24T07:48:05.825Z,21.62
2022-08-24T07:50:51.360Z,21.63
2022-08-24T07:53:53.033Z,21.81
2022-08-24T07:56:39.394Z,21.88
2022-08-24T07:59:24.557Z,21.99
2022-08-24T08:02:11.660Z,21.96
2022-08-24T08:04:56.847Z,21.96
2022-08-24T08:07:42.400Z,22.00
2022-08-24T08:10:30.632Z,22.20
2022-08-24T08:13:16.082Z,22.41
2022-08-24T08:16:05.025Z,22.71
2022-08-24T08:18:56.417Z,22.77
2022-08-24T08:22:11.555Z,22.64
2022-08-24T08:24:56.633Z,22.61
2022-08-24T08:27:41.943Z,22.61
2022-08-24T08:30:27.017Z,22.58
2022-08-24T08:33:13.073Z,22.46
2022-08-24T08:36:10.622Z,22.46
2022-08-24T08:38:56.149Z,22.43
2022-08-24T08:41:50.103Z,22.40
2022-08-24T08:44:45.850Z,22.43
2022-08-24T08:47:37.539Z,22.44
2022-08-24T08:50:33.672Z,22.56
2022-08-24T08:53:37.642Z,22.61
2022-08-24T08:56:38.601Z,22.77
2022-08-24T08:59:47.738Z,22.87
2022-08-24T09:03:03.393Z,22.88
2022-08-24T09:05:57.903Z,22.83
2022-08-24T09:09:04.489Z,22.80
2022-08-24T09:11:55.545Z,22.81
2022-08-24T09:15:02.286Z,23.09
2022-08-24T09:18:10.336Z,23.34
2022-08-24T09:21:32.786Z,23.48
2022-08-24T09:24:39.198Z,23.52
2022-08-24T09:27:33.427Z,23.43
2022-08-24T09:30:25.876Z,23.39
2022-08-24T09:33:22.422Z,23.52
2022-08-24T09:36:08.413Z,23.87
2022-08-24T09:39:01.112Z,24.15
2022-08-24T09:41:53.449Z,24.37
2022-08-24T09:44:56.016Z,24.39
2022-08-24T09:47:59.534Z,24.48
2022-08-24T09:51:20.903Z,24.64
2022-08-24T09:54:15.425Z,24.86
2022-08-24T09:57:50.224Z,25.16
2022-08-24T10:01:22.717Z,25.36
2022-08-24T10:05:12.406Z,25.47
2022-08-24T10:08:35.084Z,25.52
2022-08-24T10:11:39.052Z,25.42
2022-08-24T10:14:36.303Z,25.51
2022-08-24T10:17:44.028Z,25.45
2022-08-24T10:20:40.226Z,25.69
2022-08-24T10:23:58.684Z,25.74
2022-08-24T10:27:31.761Z,25.50
2022-08-24T10:30:53.982Z,25.48
2022-08-24T10:33:56.494Z,25.75
2022-08-24T10:37:00.955Z,25.64
2022-08-24T10:40:13.695Z,25.83
2022-08-24T10:43:35.788Z,26.08
2022-08-24T10:46:30.219Z,26.05
2022-08-24T10:49:36.461Z,26.01
2022-08-24T10:52:40.232Z,26.19
2022-08-24T10:55:28.521Z,26.40
2022-08-24T10:58:31.604Z,26.70
2022-08-24T11:01:26.631Z,26.95
2022-08-24T11:04:25.423Z,26.80
2022-08-24T11:07:22.383Z,26.99
2022-08-24T11:10:09.992Z,27.09
2022-08-24T11:12:55.717Z,26.89
2022-08-24T11:15:55.136Z,26.61
2022-08-24T11:18:55.703Z,26.29
2022-08-24T11:21:46.223Z,26.16
2022-08-24T11:24:40.133Z,26.57
2022-08-24T11:27:39.450Z,26.49
2022-08-24T11:30:28.411Z,26.32
2022-08-24T11:33:28.039Z,26.20
2022-08-24T11:36:28.432Z,26.35
2022-08-24T11:39:16.856Z,26.92
2022-08-24T11:42:16.917Z,27.18
2022-08-24T11:45:09.841Z,27.65
2022-08-24T11:48:16.337Z,27.37
2022-08-24T11:51:14.700Z,26.98
2022-08-24T11:54:11.974Z,26.85
2022-08-24T11:57:08.461Z,27.26
2022-08-24T11:59:56.982Z,27.99
2022-08-24T12:02:56.460Z,27.76
2022-08-24T12:05:52.760Z,28.16
2022-08-24T12:08:55.209Z,28.33
2022-08-24T12:11:52.833Z,28.36
2022-08-24T12:14:47.381Z,28.62
2022-08-24T12:17:51.122Z,28.85
2022-08-24T12:20:42.131Z,28.97
2022-08-24T12:23:31.761Z,29.13
2022-08-24T12:26:23.121Z,29.41
2022-08-24T12:29:22.345Z,29.13
2022-08-24T12:32:13.846Z,29.18
2022-08-24T12:35:05.924Z,29.01
2022-08-24T12:38:00.046Z,29.23
2022-08-24T12:41:17.691Z,29.56
2022-08-24T12:44:12.149Z,29.75
2022-08-24T12:46:57.636Z,30.05
2022-08-24T12:49:52.873Z,30.10
2022-08-24T12:52:52.745Z,30.24
2022-08-24T12:55:53.392Z,30.29
2022-08-24T12:58:54.769Z,30.47
2022-08-24T13:02:06.980Z,30.33
2022-08-24T13:04:52.825Z,30.52
2022-08-24T13:07:44.252Z,30.75
2022-08-24T13:11:06.798Z,31.10
2022-08-24T13:13:55.044Z,31.16
2022-08-24T13:17:00.316Z,31.33
2022-08-24T13:20:20.667Z,31.65
2022-08-24T13:23:12.097Z,31.01
2022-08-24T13:26:18.913Z,31.19
2022-08-24T13:29:05.352Z,31.20
2022-08-24T13:31:55.737Z,30.71
2022-08-24T13:34:47.032Z,30.88
2022-08-24T13:37:32.413Z,31.18
2022-08-24T13:40:27.786Z,31.27
2022-08-24T13:43:32.694Z,31.25
2022-08-24T13:46:29.908Z,31.02
2022-08-24T13:49:15.162Z,31.34
2022-08-24T13:52:19.804Z,31.50
2022-08-24T13:55:23.565Z,31.82
2022-08-24T13:58:33.223Z,31.94
2022-08-24T14:01:34.463Z,32.05
2022-08-24T14:04:25.695Z,32.38
2022-08-24T14:07:49.715Z,32.28
2022-08-24T14:11:25.584Z,31.57
2022-08-24T14:14:15.397Z,30.96
2022-08-24T14:17:45.332Z,31.54
2022-08-24T14:20:40.624Z,31.62
2022-08-24T14:24:00.714Z,31.92
2022-08-24T14:26:47.792Z,32.14
2022-08-24T14:29:39.294Z,32.47
2022-08-24T14:32:24.472Z,32.57
2022-08-24T14:35:22.828Z,32.51
2022-08-24T14:38:20.432Z,32.69
2022-08-24T14:41:20.353Z,32.76
2022-08-24T14:44:10.213Z,32.55
2022-08-24T14:47:14.242Z,32.61
2022-08-24T14:50:12.690Z,32.22
2022-08-24T14:53:15.821Z,31.45
2022-08-24T14:56:31.686Z,30.63
2022-08-24T14:59:40.425Z,30.42
2022-08-24T15:02:56.198Z,30.41
2022-08-24T15:06:25.274Z,30.35
2022-08-24T15:09:10.990Z,30.52
2022-08-24T15:12:13.501Z,30.16
2022-08-24T15:15:09.766Z,29.92
2022-08-24T15:18:01.471Z,29.78
2022-08-24T15:20:57.692Z,29.60
2022-08-24T15:23:52.003Z,29.89
2022-08-24T15:26:55.805Z,30.10
2022-08-24T15:29:52.954Z,30.01
2022-08-24T15:32:51.808Z,29.81
2022-08-24T15:35:38.907Z,29.63
2022-08-24T15:38:33.957Z,29.44
2022-08-24T15:41:21.946Z,29.24
2022-08-24T15:44:23.481Z,29.16
2022-08-24T15:47:19.297Z,29.15
2022-08-24T15:50:09.117Z,29.19
2022-08-24T15:53:01.398Z,29.18
2022-08-24T15:55:48.149Z,29.10
2022-08-24T15:58:38.944Z,28.95
2022-08-24T16:01:46.811Z,28.77
2022-08-24T16:04:40.284Z,28.51
2022-08-24T16:07:31.304Z,28.40
2022-08-24T16:10:33.236Z,28.28
2022-08-24T16:13:18.136Z,28.18
2022-08-24T16:16:10.812Z,28.13
2022-08-24T16:18:59.209Z,28.06
2022-08-24T16:21:55.320Z,28.08
2022-08-24T16:24:43.913Z,28.10
2022-08-24T16:27:53.751Z,28.07
2022-08-24T16:30:59.926Z,28.15
2022-08-24T16:33:47.258Z,28.12
2022-08-24T16:36:32.281Z,28.14
2022-08-24T16:39:17.655Z,28.05
2022-08-24T16:42:06.882Z,27.98
2022-08-24T16:44:52.185Z,27.91
2022-08-24T16:47:37.574Z,27.69
2022-08-24T16:50:27.509Z,27.61
2022-08-24T16:53:13.172Z,27.51
2022-08-24T16:55:58.999Z,27.47
2022-08-24T16:58:47.231Z,27.49
2022-08-24T17:01:32.546Z,27.49
2022-08-24T17:04:17.810Z,27.50
2022-08-24T17:07:05.613Z,27.42
2022-08-24T17:09:51.182Z,27.38
2022-08-24T17:12:37.521Z,27.32
2022-08-24T17:15:22.758Z,27.24
2022-08-24T17:18:11.246Z,27.27
2022-08-24T17:20:56.798Z,27.20
2022-08-24T17:23:42.522Z,27.11
2022-08-24T17:26:30.253Z,27.13
2022-08-24T17:29:18.584Z,27.15
2022-08-24T17:32:05.212Z,27.11
2022-08-24T17:34:50.272Z,27.02
2022-08-24T17:37:36.957Z,26.91
2022-08-24T17:40:25.043Z,26.89
2022-08-24T17:43:10.561Z,26.75
2022-08-24T17:45:56.457Z,26.67
2022-08-24T17:48:46.144Z,26.64
2022-08-24T17:51:31.610Z,26.61
2022-08-24T17:54:18.041Z,26.57
2022-08-24T17:57:03.761Z,26.53
2022-08-24T17:59:50.681Z,26.51
2022-08-24T18:02:36.069Z,26.48
2022-08-24T18:05:21.802Z,26.50
2022-08-24T18:08:07.331Z,26.48
2022-08-24T18:10:53.268Z,26.39
2022-08-24T18:13:38.465Z,26.38
2022-08-24T18:16:27.381Z,26.33
2022-08-24T18:19:13.655Z,26.24
2022-08-24T18:21:58.874Z,26.14
2022-08-24T18:24:44.694Z,26.18
2022-08-24T18:27:32.603Z,26.19
2022-08-24T18:30:25.209Z,26.14
2022-08-24T18:33:14.646Z,26.16
2022-08-24T18:36:00.113Z,26.09
2022-08-24T18:38:45.186Z,26.06
2022-08-24T18:41:37.620Z,26.03
2022-08-24T18:44:26.143Z,26.01
2022-08-24T18:47:13.338Z,25.95
2022-08-24T18:49:58.993Z,25.93
2022-08-24T18:52:44.642Z,25.86
2022-08-24T18:55:30.487Z,25.86
2022-08-24T18:58:15.545Z,25.81
2022-08-24T19:01:02.480Z,25.75
2022-08-24T19:03:48.216Z,25.68
2022-08-24T19:06:33.124Z,25.59
2022-08-24T19:09:19.165Z,25.54
2022-08-24T19:12:05.165Z,25.46
2022-08-24T19:14:56.262Z,25.40
2022-08-24T19:17:41.870Z,25.32
2022-08-24T19:20:27.053Z,25.19
2022-08-24T19:23:20.360Z,25.17
2022-08-24T19:26:05.574Z,25.10
2022-08-24T19:28:51.589Z,25.04
2022-08-24T19:31:36.789Z,24.94
2022-08-24T19:34:22.257Z,24.91
2022-08-24T19:37:08.021Z,24.81
2022-08-24T19:39:53.392Z,24.75
2022-08-24T19:42:38.670Z,24.70
2022-08-24T19:45:45.012Z,24.54
2022-08-24T19:48:35.136Z,24.49
2022-08-24T19:51:20.270Z,24.46
2022-08-24T19:54:06.622Z,24.37
2022-08-24T19:56:53.212Z,24.26
2022-08-24T19:59:42.998Z,24.23
2022-08-24T20:02:28.070Z,24.12
2022-08-24T20:05:13.722Z,23.98
2022-08-24T20:08:00.210Z,23.95
2022-08-24T20:10:45.234Z,23.89
2022-08-24T20:13:30.495Z,23.84
2022-08-24T20:16:18.216Z,23.77
2022-08-24T20:19:05.045Z,23.69
2022-08-24T20:21:49.954Z,23.60
2022-08-24T20:24:35.134Z,23.59
2022-08-24T20:27:25.018Z,23.50
2022-08-24T20:30:10.740Z,23.40
2022-08-24T20:32:55.843Z,23.22
2022-08-24T20:35:41.734Z,23.19
2022-08-24T20:38:31.666Z,23.13
2022-08-24T20:41:17.463Z,23.05
2022-08-24T20:44:04.102Z,22.98
2022-08-24T20:46:50.128Z,23.05
2022-08-24T20:49:36.631Z,23.01
2022-08-24T20:52:21.985Z,22.92
2022-08-24T20:55:07.317Z,22.86
2022-08-24T20:57:56.150Z,22.88
2022-08-24T21:00:44.288Z,22.79
2022-08-24T21:03:29.982Z,22.70
2022-08-24T21:06:18.837Z,22.62
2022-08-24T21:09:06.006Z,22.56
2022-08-24T21:11:51.356Z,22.51
2022-08-24T21:14:36.421Z,22.45
2022-08-24T21:17:23.704Z,22.30
2022-08-24T21:20:10.585Z,22.33
2022-08-24T21:22:55.593Z,22.28
2022-08-24T21:25:41.034Z,22.21
2022-08-24T21:28:26.419Z,22.23
2022-08-24T21:31:11.777Z,22.15
2022-08-24T21:34:15.486Z,22.07
2022-08-24T21:37:01.174Z,22.01
2022-08-24T21:39:47.351Z,22.02
2022-08-24T21:42:34.490Z,21.99
2022-08-24T21:45:22.664Z,21.91
2022-08-24T21:48:08.072Z,22.00
2022-08-24T21:50:53.941Z,22.07
2022-08-24T21:53:38.973Z,22.03
2022-08-24T21:56:26.854Z,22.05
2022-08-24T21:59:12.330Z,22.02
2022-08-24T22:01:57.534Z,22.01
2022-08-24T22:04:42.701Z,21.95
2022-08-24T22:07:28.055Z,21.89
2022-08-24T22:10:13.574Z,21.90
2022-08-24T22:13:03.802Z,21.89
2022-08-24T22:15:50.174Z,21.84
2022-08-24T22:18:36.081Z,21.78
2022-08-24T22:21:24.785Z,21.71
2022-08-24T22:24:09.734Z,21.65
2022-08-24T22:26:55.110Z,21.66
2022-08-24T22:29:39.997Z,21.54
2022-08-24T22:32:25.718Z,21.47
2022-08-24T22:35:11.038Z,21.35
2022-08-24T22:37:56.020Z,21.35
2022-08-24T22:40:43.077Z,21.39
2022-08-24T22:43:48.048Z,21.29
2022-08-24T22:46:37.086Z,21.27
2022-08-24T22:49:25.000Z,21.15
2022-08-24T22:52:11.077Z,21.20
2022-08-24T22:54:57.326Z,21.11
2022-08-24T22:57:42.911Z,21.11
2022-08-24T23:00:29.771Z,21.02
2022-08-24T23:03:14.947Z,21.04
2022-08-24T23:06:00.077Z,21.03
2022-08-24T23:08:45.758Z,21.02
2022-08-24T23:11:33.082Z,20.89
2022-08-24T23:14:19.412Z,20.93
2022-08-24T23:17:05.197Z,20.82
2022-08-24T23:20:05.860Z,20.83
2022-08-24T23:22:50.932Z,20.74
2022-08-24T23:25:36.085Z,20.66
2022-08-24T23:28:21.330Z,20.58
2022-08-24T23:31:08.784Z,20.61
2022-08-24T23:33:54.188Z,20.68
2022-08-24T23:36:40.066Z,20.78
2022-08-24T23:39:25.261Z,20.70
2022-08-24T23:42:10.632Z,20.71
2022-08-24T23:44:55.863Z,20.66
2022-08-24T23:47:42.224Z,20.63
2022-08-24T23:50:27.701Z,20.52
2022-08-24T23:53:13.685Z,20.46
2022-08-24T23:56:07.169Z,20.45
2022-08-24T23:58:53.038Z,20.45
